Time;durP1;ratioP1;P1;durP2;ratioP2;P2;SDS_P1;SDS_P2;PMS_P1;PMS_P2;Temp;Humidity;BMP_temperature;BMP_pressure;BME280_temperature;BME280_humidity;BME280_pressure;Samples;Min_cycle;Max_cycle;Signal;HPM_P1;HPM_P2
2023/05/25 00:00:42;;;;;;;5.10;2.10;;;;;;;18.41;40.87;102250.19;4936124;29;20043;-59
2023/05/25 00:03:08;;;;;;;4.85;1.95;;;;;;;18.38;41.49;102248.63;4936235;29;20055;-59
2023/05/25 00:05:35;;;;;;;4.35;1.92;;;;;;;18.19;40.49;102226.06;4934616;29;20123;-61
2023/05/25 00:08:00;;;;;;;6.80;2.35;;;;;;;18.31;41.21;102252.91;4933840;29;20127;-61
2023/05/25 00:10:28;;;;;;;7.45;2.08;;;;;;;18.28;40.56;102252.34;4935393;29;20028;-60
2023/05/25 00:12:55;;;;;;;4.85;1.90;;;;;;;18.23;41.52;102241.91;4950025;29;20028;-60
2023/05/25 00:15:24;;;;;;;7.93;2.28;;;;;;;18.18;41.51;102246.06;4935480;29;20019;-60
2023/05/25 00:17:49;;;;;;;5.63;2.45;;;;;;;18.11;41.42;102248.50;4935757;29;20554;-61
2023/05/25 00:20:15;;;;;;;6.93;2.83;;;;;;;18.05;41.68;102243.66;4946463;28;20052;-60
2023/05/25 00:22:43;;;;;;;3.42;2.15;;;;;;;18.02;41.38;102243.94;4916512;28;20036;-59
2023/05/25 00:25:10;;;;;;;4.13;1.92;;;;;;;17.97;41.69;102251.63;4916407;28;20036;-59
2023/05/25 00:27:35;;;;;;;6.65;2.22;;;;;;;17.93;41.59;102242.94;4930923;28;20039;-60
2023/05/25 00:30:01;;;;;;;7.00;2.00;;;;;;;17.92;42.04;102241.19;4947368;29;20028;-60
2023/05/25 00:32:26;;;;;;;8.48;2.42;;;;;;;17.89;41.20;102238.81;4916287;28;20412;-60
2023/05/25 00:34:53;;;;;;;3.65;1.55;;;;;;;17.88;41.10;102234.38;4916152;28;20028;-59
2023/05/25 00:37:18;;;;;;;6.22;2.25;;;;;;;17.87;40.53;102235.34;4946791;28;20059;-60
2023/05/25 00:39:43;;;;;;;7.00;2.35;;;;;;;17.82;41.57;102234.94;4916353;28;20060;-60
2023/05/25 00:42:09;;;;;;;7.63;2.50;;;;;;;17.78;41.70;102238.91;4947333;29;20488;-59
2023/05/25 00:44:35;;;;;;;8.30;2.33;;;;;;;17.74;40.92;102244.75;4916289;28;20107;-60
2023/05/25 00:47:02;;;;;;;4.25;2.05;;;;;;;17.53;42.14;102217.75;4916233;28;20039;-59
2023/05/25 00:49:30;;;;;;;4.40;1.95;;;;;;;17.60;40.84;102248.75;4915046;29;20084;-60
2023/05/25 00:51:56;;;;;;;2.70;2.13;;;;;;;17.53;41.98;102242.16;4916073;28;20740;-60
2023/05/25 00:57:27;;;;;;;5.32;1.80;;;;;;;17.42;41.55;102244.94;4914634;28;20412;-59
2023/05/25 00:59:53;;;;;;;4.85;2.30;;;;;;;17.38;42.55;102247.09;4950806;29;20031;-59
2023/05/25 01:02:18;;;;;;;9.55;2.25;;;;;;;17.36;41.21;102251.78;4930153;29;20495;-59
2023/05/25 01:04:51;;;;;;;4.30;1.90;;;;;;;17.36;41.06;102248.22;4928036;29;20132;-60
2023/05/25 01:07:22;;;;;;;6.75;2.05;;;;;;;17.31;42.14;102239.63;4935203;29;20038;-59
2023/05/25 01:09:49;;;;;;;3.55;2.60;;;;;;;17.29;41.98;102244.34;4952971;29;20031;-60
2023/05/25 01:12:15;;;;;;;5.57;1.92;;;;;;;17.26;41.58;102253.59;4937228;29;20024;-59
2023/05/25 01:14:41;;;;;;;3.58;2.00;;;;;;;17.22;42.28;102254.03;4953534;29;20042;-59
2023/05/25 01:17:08;;;;;;;4.63;2.20;;;;;;;17.00;41.30;102217.16;4938154;29;20126;-60
2023/05/25 01:19:35;;;;;;;10.43;3.30;;;;;;;16.96;42.25;102228.41;4938153;29;20043;-60
2023/05/25 01:22:11;;;;;;;3.88;2.17;;;;;;;17.10;43.13;102249.69;4938218;29;20122;-60
2023/05/25 01:25:04;;;;;;;3.55;2.42;;;;;;;16.97;42.01;102240.97;4938303;29;20064;-59
2023/05/25 01:27:32;;;;;;;;;;;;;;;17.05;43.09;102260.94;4935062;29;20040;-60
2023/05/25 01:29:59;;;;;;;5.70;2.42;;;;;;;17.01;41.38;102254.06;4938952;29;19948;-60
2023/05/25 01:32:25;;;;;;;10.63;2.78;;;;;;;16.71;42.05;102211.63;4936941;29;20047;-60
2023/05/25 01:34:54;;;;;;;5.30;2.22;;;;;;;16.93;42.80;102251.19;4921219;29;20040;-60
2023/05/25 01:37:23;;;;;;;4.53;1.80;;;;;;;16.91;43.00;102252.31;4938266;29;20032;-60
2023/05/25 01:39:48;;;;;;;6.25;2.17;;;;;;;16.87;42.87;102247.19;4952699;29;20031;-60
2023/05/25 01:42:14;;;;;;;5.20;2.65;;;;;;;16.67;41.91;102226.41;4938752;29;20529;-62
2023/05/25 01:44:39;;;;;;;3.65;2.45;;;;;;;16.81;42.56;102257.69;4938951;29;20107;-60
2023/05/25 01:47:10;;;;;;;6.40;2.53;;;;;;;16.77;42.46;102267.06;4938059;29;20423;-60
2023/05/25 01:49:43;;;;;;;5.85;2.38;;;;;;;16.71;42.43;102263.06;4952341;29;20126;-60
2023/05/25 01:52:27;;;;;;;8.27;2.35;;;;;;;16.65;43.82;102269.00;4936695;29;20036;-60
2023/05/25 01:55:00;;;;;;;4.85;2.30;;;;;;;16.61;43.04;102264.81;4936338;29;20027;-60
2023/05/25 01:57:25;;;;;;;7.50;2.65;;;;;;;16.57;43.21;102266.09;4935965;29;20055;-60
2023/05/25 01:59:51;;;;;;;6.18;2.15;;;;;;;16.56;43.16;102275.19;4938355;29;20562;-61
2023/05/25 02:02:18;;;;;;;3.60;2.45;;;;;;;16.52;43.23;102271.03;4952235;29;20411;-60
2023/05/25 02:04:45;;;;;;;3.72;2.05;;;;;;;16.51;42.56;102265.72;4937532;29;20086;-60
2023/05/25 02:07:10;;;;;;;7.40;2.33;;;;;;;16.48;43.67;102261.44;4952810;29;20035;-60
2023/05/25 02:09:35;;;;;;;6.32;2.47;;;;;;;16.12;43.45;102214.09;4936432;29;20495;-60
2023/05/25 02:12:01;;;;;;;4.38;2.72;;;;;;;16.43;42.30;102263.69;4937670;29;20024;-60
2023/05/25 02:14:26;;;;;;;5.03;2.05;;;;;;;16.41;43.30;102265.69;4936459;29;20532;-60
2023/05/25 02:16:52;;;;;;;6.70;1.98;;;;;;;16.37;42.95;102268.75;4937370;29;20035;-60
2023/05/25 02:19:17;;;;;;;11.07;2.95;;;;;;;16.35;43.16;102265.34;4936638;29;20087;-59
2023/05/25 02:21:44;;;;;;;6.03;2.50;;;;;;;16.31;42.30;102264.72;4936336;29;20039;-60
2023/05/25 02:24:09;;;;;;;3.55;2.15;;;;;;;16.29;43.42;102261.31;4937943;29;20027;-59
2023/05/25 02:26:36;;;;;;;4.35;2.60;;;;;;;16.28;44.13;102262.28;4937059;29;20407;-59
2023/05/25 02:29:02;;;;;;;4.65;2.17;;;;;;;16.24;43.26;102261.72;4937318;29;20039;-60
2023/05/25 02:31:28;;;;;;;5.82;2.20;;;;;;;16.22;43.67;102257.41;4936355;29;20024;-60
2023/05/25 02:33:53;;;;;;;4.85;2.20;;;;;;;16.19;42.63;102260.41;4933229;29;20082;-60
2023/05/25 02:36:18;;;;;;;5.13;1.98;;;;;;;16.16;44.26;102260.66;4950731;29;20028;-62
2023/05/25 02:38:45;;;;;;;3.08;1.73;;;;;;;16.13;44.02;102267.19;4940340;29;20369;-60
2023/05/25 02:41:11;;;;;;;4.88;2.20;;;;;;;16.13;43.34;102267.19;4936794;29;20083;-60
2023/05/25 02:43:36;;;;;;;3.25;2.10;;;;;;;16.07;42.81;102270.41;4951935;29;20036;-60
2023/05/25 02:46:02;;;;;;;5.30;1.25;;;;;;;16.02;43.81;102269.06;4936928;29;20402;-60
2023/05/25 02:48:27;;;;;;;7.05;1.77;;;;;;;15.98;43.60;102268.47;4952051;29;20047;-60
2023/05/25 02:50:53;;;;;;;5.55;1.70;;;;;;;15.94;44.16;102266.97;4937409;29;20031;-59
2023/05/25 02:53:18;;;;;;;4.38;1.70;;;;;;;15.94;43.05;102282.38;4935752;29;20050;-60
2023/05/25 02:55:43;;;;;;;8.07;2.20;;;;;;;15.91;42.80;102283.50;4936603;29;20043;-60
2023/05/25 02:58:09;;;;;;;4.72;1.92;;;;;;;15.89;44.28;102284.56;4936642;28;20138;-59
2023/05/25 03:00:35;;;;;;;6.53;1.40;;;;;;;15.89;42.74;102284.56;4935410;29;20039;-60
2023/05/25 03:03:00;;;;;;;4.50;1.50;;;;;;;15.85;44.09;102283.13;4937090;29;20074;-60
2023/05/25 03:05:26;;;;;;;4.10;1.83;;;;;;;15.81;44.21;102287.91;4936941;29;20518;-60
2023/05/25 03:07:52;;;;;;;2.65;1.58;;;;;;;15.80;43.74;102290.75;4936340;29;20102;-60
2023/05/25 03:10:17;;;;;;;3.67;1.70;;;;;;;15.77;43.32;102285.63;4936351;29;20487;-60
2023/05/25 03:12:43;;;;;;;7.28;1.63;;;;;;;15.76;43.07;102294.69;4930859;29;20043;-60
2023/05/25 03:15:11;;;;;;;6.70;1.98;;;;;;;15.70;44.45;102296.91;4935657;29;20040;-59
2023/05/25 03:17:37;;;;;;;2.72;1.42;;;;;;;15.45;43.69;102262.06;4950576;29;20064;-62
2023/05/25 03:20:03;;;;;;;1.98;1.17;;;;;;;15.66;44.51;102300.00;4936133;29;20035;-60
2023/05/25 03:22:28;;;;;;;5.00;2.13;;;;;;;15.63;43.86;102294.84;4935678;29;20075;-60
2023/05/25 03:24:53;;;;;;;8.60;1.73;;;;;;;15.60;44.35;102301.38;4936511;29;20024;-60
2023/05/25 03:27:19;;;;;;;4.53;1.70;;;;;;;15.58;43.47;102311.41;4933984;29;20032;-60
2023/05/25 03:29:48;;;;;;;5.22;1.90;;;;;;;15.58;43.35;102313.25;4935993;29;20399;-60
2023/05/25 03:32:13;;;;;;;3.00;1.45;;;;;;;15.57;44.82;102311.56;4934369;29;20028;-60
2023/05/25 03:34:39;;;;;;;9.32;1.98;;;;;;;15.55;44.00;102308.13;4934836;29;20415;-60
2023/05/25 03:37:04;;;;;;;4.00;1.85;;;;;;;15.52;43.21;102317.31;4935727;29;20070;-59
2023/05/25 03:39:30;;;;;;;5.53;1.92;;;;;;;15.52;44.23;102311.09;4934673;29;20039;-59
2023/05/25 03:41:56;;;;;;;6.75;2.15;;;;;;;15.51;43.43;102317.47;4936010;29;20079;-60
2023/05/25 03:44:22;;;;;;;6.32;2.30;;;;;;;15.47;44.02;102314.13;4935943;29;20167;-60
2023/05/25 03:46:47;;;;;;;3.67;1.55;;;;;;;15.47;43.93;102316.84;4935409;29;20131;-60
2023/05/25 03:49:13;;;;;;;5.60;1.55;;;;;;;15.45;43.64;102321.47;4936196;29;20100;-60
2023/05/25 03:51:39;;;;;;;5.78;1.48;;;;;;;15.43;44.02;102320.75;4935963;29;20060;-60
2023/05/25 03:54:05;;;;;;;7.15;1.50;;;;;;;15.23;43.80;102299.91;4936262;29;20035;-60
2023/05/25 03:56:30;;;;;;;3.90;2.10;;;;;;;15.37;45.14;102329.34;4935338;29;20055;-60
2023/05/25 03:58:56;;;;;;;6.88;2.35;;;;;;;15.37;43.98;102332.03;4935812;29;20035;-60
2023/05/25 04:01:25;;;;;;;5.63;2.10;;;;;;;15.35;45.13;102331.31;4935578;29;20444;-60
2023/05/25 04:03:51;;;;;;;4.63;2.03;;;;;;;15.18;45.09;102304.81;4935792;29;20057;-60
2023/05/25 04:06:18;;;;;;;4.43;2.00;;;;;;;15.40;45.39;102336.34;4935867;29;20031;-59
2023/05/25 04:08:44;;;;;;;6.75;2.25;;;;;;;15.40;45.03;102339.91;4950964;29;20047;-60
2023/05/25 04:11:10;;;;;;;3.65;2.00;;;;;;;15.41;44.99;102333.50;4934384;29;20052;-60
2023/05/25 04:13:35;;;;;;;4.15;1.85;;;;;;;15.44;45.11;102344.06;4934871;29;20071;-60
2023/05/25 04:16:01;;;;;;;5.70;2.47;;;;;;;15.47;44.77;102342.97;4935988;29;20139;-60
2023/05/25 04:18:26;;;;;;;5.40;2.08;;;;;;;15.47;44.56;102345.69;4935473;29;20038;-59
2023/05/25 04:20:52;;;;;;;5.63;2.10;;;;;;;15.48;44.59;102345.56;4934558;29;20020;-60
2023/05/25 04:23:18;;;;;;;1.73;1.45;;;;;;;15.50;45.61;102354.41;4935763;29;20051;-60
2023/05/25 04:25:44;;;;;;;6.25;2.60;;;;;;;15.52;44.74;102347.03;4934671;29;20087;-59
2023/05/25 04:28:11;;;;;;;4.07;1.45;;;;;;;15.54;43.90;102345.09;4935689;28;20052;-60
2023/05/25 04:30:36;;;;;;;7.38;2.60;;;;;;;15.43;44.48;102326.16;4934402;28;20043;-60
2023/05/25 04:33:02;;;;;;;6.68;2.55;;;;;;;15.63;44.27;102346.19;4950584;29;20077;-60
2023/05/25 04:35:27;;;;;;;5.20;2.45;;;;;;;15.65;44.98;102353.19;4935529;28;20036;-59
2023/05/25 04:37:53;;;;;;;8.40;2.90;;;;;;;15.66;44.09;102341.38;4935725;28;20394;-60
2023/05/25 04:40:20;;;;;;;3.83;1.90;;;;;;;15.77;44.41;102355.84;4936113;28;20521;-60
2023/05/25 04:42:46;;;;;;;3.78;2.08;;;;;;;15.86;45.84;102349.69;4937915;28;20495;-60
2023/05/25 04:45:16;;;;;;;4.15;2.25;;;;;;;15.79;44.97;102326.88;4954819;29;20027;-60
2023/05/25 04:47:41;;;;;;;11.82;2.80;;;;;;;16.05;45.17;102355.31;4953693;29;20043;-60
2023/05/25 04:50:10;;;;;;;7.40;3.17;;;;;;;16.14;44.58;102351.81;4938846;29;20513;-60
2023/05/25 04:52:35;;;;;;;7.40;3.05;;;;;;;16.25;44.44;102357.19;4938666;29;20032;-60
2023/05/25 04:55:01;;;;;;;7.95;2.75;;;;;;;16.35;46.18;102360.84;4938876;29;20039;-60
2023/05/25 04:57:29;;;;;;;6.75;2.45;;;;;;;16.46;45.20;102359.94;4938372;29;20057;-60
2023/05/25 04:59:54;;;;;;;10.25;4.28;;;;;;;16.28;45.03;102313.66;4939237;29;20028;-60
2023/05/25 05:02:20;;;;;;;12.25;3.47;;;;;;;16.70;45.25;102368.69;4938979;29;20039;-59
2023/05/25 05:04:45;;;;;;;14.48;3.05;;;;;;;16.82;45.31;102368.53;4936858;29;20075;-60
2023/05/25 05:07:10;;;;;;;7.30;2.50;;;;;;;16.95;45.53;102372.88;4938970;28;20078;-60
2023/05/25 05:09:36;;;;;;;7.18;3.28;;;;;;;17.07;45.49;102371.81;4953300;28;20392;-60
2023/05/25 05:12:02;;;;;;;5.82;2.90;;;;;;;17.18;45.33;102375.31;4937838;29;20028;-60
2023/05/25 05:14:27;;;;;;;4.72;2.92;;;;;;;17.29;45.57;102372.50;4937139;29;20032;-60
2023/05/25 05:16:53;;;;;;;6.90;3.35;;;;;;;17.38;45.53;102376.25;4937281;29;20426;-60
2023/05/25 05:19:18;;;;;;;9.80;3.63;;;;;;;17.53;45.50;102387.59;4937056;29;20107;-60
2023/05/25 05:21:44;;;;;;;9.50;3.47;;;;;;;17.63;45.07;102378.53;4938362;29;20038;-60
2023/05/25 05:24:10;;;;;;;9.98;3.20;;;;;;;17.77;45.89;102382.72;4938767;29;20031;-60
2023/05/25 05:26:36;;;;;;;8.27;3.30;;;;;;;17.76;45.86;102365.59;4938046;29;20040;-60
2023/05/25 05:29:02;;;;;;;8.52;3.20;;;;;;;17.87;45.46;102368.19;4937072;29;20028;-60
2023/05/25 05:31:28;;;;;;;9.90;3.72;;;;;;;18.12;45.70;102384.97;4938162;29;20521;-60
2023/05/25 05:33:54;;;;;;;8.40;3.42;;;;;;;17.92;45.02;102330.66;4936656;29;20032;-60
2023/05/25 05:36:19;;;;;;;6.40;2.90;;;;;;;18.19;45.47;102364.41;4938155;28;20027;-61
2023/05/25 05:38:45;;;;;;;6.80;3.33;;;;;;;18.48;45.03;102400.63;4938198;29;20028;-60
2023/05/25 05:41:14;;;;;;;11.05;3.47;;;;;;;18.62;45.35;102402.03;4937754;28;20123;-61
2023/05/25 05:43:41;;;;;;;7.10;2.92;;;;;;;18.75;45.19;102398.03;4937699;28;20127;-60
2023/05/25 05:46:08;;;;;;;13.38;4.72;;;;;;;18.88;45.31;102409.44;4937760;28;20507;-60
2023/05/25 05:48:34;;;;;;;8.10;3.70;;;;;;;19.03;44.39;102402.59;4937878;28;20054;-60
2023/05/25 05:51:00;;;;;;;11.27;3.88;;;;;;;19.20;44.32;102403.69;4938248;29;20022;-60
2023/05/25 05:53:25;;;;;;;7.00;3.45;;;;;;;19.34;44.78;102405.09;4936854;28;20040;-60
2023/05/25 05:55:53;;;;;;;7.80;3.80;;;;;;;19.46;44.85;102403.91;4937317;28;20071;-60
2023/05/25 05:58:18;;;;;;;9.98;3.72;;;;;;;19.59;44.13;102409.91;4937500;28;20097;-60
2023/05/25 06:00:43;;;;;;;14.25;3.97;;;;;;;19.65;44.30;102403.88;4937489;28;20040;-60
2023/05/25 06:03:09;;;;;;;8.90;3.03;;;;;;;19.76;44.43;102403.66;4938114;29;20128;-60
2023/05/25 06:05:34;;;;;;;6.65;3.63;;;;;;;19.86;44.31;102409.91;4936485;29;20403;-60
2023/05/25 06:08:00;;;;;;;11.52;3.60;;;;;;;19.96;43.92;102413.41;4937806;29;20060;-60
2023/05/25 06:10:25;;;;;;;9.15;3.28;;;;;;;20.07;44.23;102407.78;4937989;29;20055;-60
2023/05/25 06:12:51;;;;;;;12.25;3.80;;;;;;;20.02;44.29;102385.63;4936042;29;20102;-61
2023/05/25 06:15:16;;;;;;;15.02;4.10;;;;;;;20.29;43.26;102421.00;4936061;29;20103;-60
2023/05/25 06:17:42;;;;;;;11.50;4.18;;;;;;;20.39;44.24;102420.06;4937896;29;20027;-60
2023/05/25 06:20:08;;;;;;;7.30;4.18;;;;;;;20.37;43.79;102395.72;4937046;29;20471;-60
2023/05/25 06:22:34;;;;;;;14.60;5.38;;;;;;;20.64;43.60;102419.31;4937129;29;20040;-60
2023/05/25 06:25:00;;;;;;;6.88;3.33;;;;;;;20.76;43.74;102418.06;4937072;29;20035;-60
2023/05/25 06:27:25;;;;;;;11.75;3.95;;;;;;;20.87;43.29;102423.28;4937036;29;20033;-60
2023/05/25 06:29:51;;;;;;;9.55;3.90;;;;;;;21.01;43.34;102419.97;4937390;29;20402;-61
2023/05/25 06:32:16;;;;;;;9.38;3.72;;;;;;;21.13;42.96;102416.03;4936988;29;20028;-61
2023/05/25 06:34:42;;;;;;;10.30;4.18;;;;;;;21.27;43.12;102418.16;4939860;29;20087;-60
2023/05/25 06:37:07;;;;;;;10.45;4.47;;;;;;;21.42;42.67;102419.28;4939219;29;20040;-60
2023/05/25 06:39:32;;;;;;;9.70;4.57;;;;;;;21.58;42.14;102423.13;4936879;29;20028;-60
2023/05/25 06:41:58;;;;;;;9.40;3.80;;;;;;;21.71;42.58;102429.00;4935967;29;20043;-60
2023/05/25 06:44:23;;;;;;;14.88;4.88;;;;;;;21.84;42.92;102413.88;4936820;29;20032;-60
2023/05/25 06:46:48;;;;;;;16.65;4.63;;;;;;;21.96;41.87;102422.66;4936899;29;20043;-60
2023/05/25 06:49:14;;;;;;;12.63;4.20;;;;;;;22.06;41.70;102420.66;4936975;28;20170;-60
2023/05/25 06:51:39;;;;;;;13.18;4.88;;;;;;;22.19;41.95;102414.72;4935391;29;20122;-60
2023/05/25 06:54:07;;;;;;;14.85;4.25;;;;;;;22.32;41.68;102417.81;4935430;29;20119;-60
2023/05/25 06:56:32;;;;;;;9.75;4.07;;;;;;;22.42;41.79;102421.25;4936350;29;20052;-61
2023/05/25 06:58:58;;;;;;;10.75;4.35;;;;;;;22.48;42.10;102418.72;4935097;29;20058;-61
2023/05/25 07:01:23;;;;;;;11.93;4.75;;;;;;;22.63;42.00;102418.91;4935039;29;20036;-61
2023/05/25 07:03:48;;;;;;;11.65;4.75;;;;;;;22.76;41.70;102432.09;4935042;29;20087;-60
2023/05/25 07:06:15;;;;;;;11.90;4.70;;;;;;;22.84;41.16;102432.09;4936217;29;20052;-62
2023/05/25 07:08:41;;;;;;;11.82;4.32;;;;;;;22.94;41.66;102432.81;4935504;29;20023;-60
2023/05/25 07:11:09;;;;;;;12.15;4.60;;;;;;;23.08;40.61;102429.38;4936292;29;20039;-61
2023/05/25 07:13:34;;;;;;;6.68;3.80;;;;;;;23.16;41.18;102432.09;4950974;29;20106;-60
2023/05/25 07:16:00;;;;;;;11.77;4.05;;;;;;;23.26;40.94;102430.03;4936125;29;20491;-60
2023/05/25 07:18:25;;;;;;;10.90;4.32;;;;;;;23.13;40.56;102383.25;4936076;29;20066;-60
2023/05/25 07:20:52;;;;;;;12.98;3.95;;;;;;;23.53;40.40;102432.44;4936711;29;20028;-61
2023/05/25 07:23:17;;;;;;;15.73;3.83;;;;;;;23.68;39.86;102436.13;4936034;29;20035;-61
2023/05/25 07:25:43;;;;;;;10.00;4.10;;;;;;;23.79;40.26;102434.91;4934718;29;20388;-61
2023/05/25 07:28:08;;;;;;;17.08;4.28;;;;;;;23.96;40.02;102435.69;4935004;29;20079;-61
2023/05/25 07:30:33;;;;;;;10.75;3.75;;;;;;;24.12;39.46;102446.63;4950609;29;20043;-61
2023/05/25 07:32:59;;;;;;;12.30;4.35;;;;;;;24.27;39.48;102450.31;4935004;29;20376;-61
2023/05/25 07:35:25;;;;;;;12.82;5.10;;;;;;;24.40;39.86;102445.09;4934730;29;20052;-61
2023/05/25 07:37:58;;;;;;;8.75;4.22;;;;;;;24.58;38.91;102453.88;4934931;29;20032;-61
2023/05/25 07:40:23;;;;;;;8.35;3.78;;;;;;;24.69;39.14;102445.25;4935739;29;20032;-61
2023/05/25 07:42:49;;;;;;;12.38;3.92;;;;;;;24.87;39.14;102448.56;4950478;29;20032;-61
2023/05/25 07:45:15;;;;;;;14.25;4.10;;;;;;;25.00;38.65;102452.59;4934524;29;20031;-62
2023/05/25 07:47:40;;;;;;;10.38;4.18;;;;;;;25.07;38.55;102432.44;4936599;29;20031;-61
2023/05/25 07:50:06;;;;;;;9.60;4.25;;;;;;;25.03;38.91;102446.72;4935652;29;20503;-61
2023/05/25 07:52:31;;;;;;;8.15;4.43;;;;;;;25.29;38.42;102449.94;4950459;29;20043;-61
2023/05/25 07:54:56;;;;;;;9.52;4.28;;;;;;;25.52;38.08;102450.75;4934909;29;20153;-61
2023/05/25 07:57:22;;;;;;;9.05;4.10;;;;;;;25.26;38.20;102440.19;4935401;29;20126;-61
2023/05/25 07:59:47;;;;;;;7.38;3.55;;;;;;;24.98;38.55;102455.53;4935837;29;20103;-61
2023/05/25 08:02:12;;;;;;;15.00;3.75;;;;;;;25.04;38.71;102453.94;4935791;29;20047;-61
2023/05/25 08:04:38;;;;;;;16.35;4.35;;;;;;;24.51;39.02;102447.41;4935546;29;20028;-61
2023/05/25 08:07:03;;;;;;;11.38;3.63;;;;;;;25.05;38.66;102461.09;4935746;29;20055;-61
2023/05/25 08:09:29;;;;;;;10.57;4.03;;;;;;;25.24;37.73;102455.97;4935899;29;20476;-61
2023/05/25 08:11:54;;;;;;;11.25;3.47;;;;;;;25.71;37.41;102446.63;4919017;29;20020;-61
2023/05/25 08:14:19;;;;;;;10.13;4.03;;;;;;;25.77;37.06;102452.19;4935391;29;20119;-61
2023/05/25 08:16:45;;;;;;;12.63;4.88;;;;;;;25.49;37.87;102447.53;4936620;29;20044;-62
2023/05/25 08:19:10;;;;;;;8.93;3.72;;;;;;;25.73;37.14;102450.00;4939884;29;20032;-59
2023/05/25 08:21:36;;;;;;;8.77;4.10;;;;;;;25.60;37.71;102458.06;4939444;29;20070;-61
2023/05/25 08:24:04;;;;;;;10.70;4.88;;;;;;;25.55;37.28;102453.13;4938583;29;20028;-61
2023/05/25 08:26:30;;;;;;;10.98;4.68;;;;;;;25.24;37.94;102455.09;4939513;29;20032;-61
2023/05/25 08:28:56;;;;;;;8.45;3.78;;;;;;;25.48;37.16;102451.31;4939523;29;20126;-61
2023/05/25 08:31:21;;;;;;;10.30;3.88;;;;;;;25.97;36.76;102452.47;4938242;29;20454;-61
2023/05/25 08:33:47;;;;;;;15.00;4.05;;;;;;;25.80;37.02;102438.06;4939338;29;20044;-61
2023/05/25 08:36:12;;;;;;;9.85;4.57;;;;;;;25.96;36.63;102454.34;4955195;29;20027;-61
2023/05/25 08:38:37;;;;;;;9.65;3.53;;;;;;;26.20;36.20;102457.88;4939067;29;20521;-61
2023/05/25 08:41:04;;;;;;;9.95;3.53;;;;;;;26.02;36.53;102439.00;4939002;29;20091;-61
2023/05/25 08:43:31;;;;;;;14.55;3.72;;;;;;;25.88;36.49;102443.47;4953910;29;20036;-61
2023/05/25 08:46:05;;;;;;;13.85;3.55;;;;;;;25.55;37.09;102453.13;4939078;29;20062;-61
2023/05/25 08:48:35;;;;;;;9.77;3.28;;;;;;;26.28;36.00;102452.25;4937620;29;20028;-61
2023/05/25 08:51:06;;;;;;;13.82;4.20;;;;;;;26.26;35.67;102446.13;4954278;29;20027;-61
2023/05/25 08:53:35;;;;;;;12.68;4.35;;;;;;;26.38;35.66;102447.31;4953638;29;20106;-59
2023/05/25 08:56:02;;;;;;;7.38;3.05;;;;;;;26.17;36.37;102441.75;4938469;29;20484;-61
2023/05/25 08:58:32;;;;;;;10.18;3.22;;;;;;;25.97;36.44;102449.72;4953507;29;20499;-62
2023/05/25 09:01:01;;;;;;;9.95;3.42;;;;;;;25.73;36.30;102428.91;4937695;29;20036;-59
2023/05/25 09:03:29;;;;;;;4.70;3.08;;;;;;;25.72;36.64;102454.66;4937542;29;20038;-61
2023/05/25 09:05:55;;;;;;;17.73;3.95;;;;;;;25.65;36.42;102453.72;4939097;29;20023;-61
2023/05/25 09:08:21;;;;;;;9.75;3.35;;;;;;;25.60;36.38;102456.13;4937495;29;20050;-61
2023/05/25 09:10:47;;;;;;;7.15;3.60;;;;;;;26.17;35.65;102455.50;4937358;29;20031;-61
2023/05/25 09:13:13;;;;;;;11.25;3.50;;;;;;;25.84;35.98;102441.31;4921470;29;20091;-61
2023/05/25 09:15:38;;;;;;;12.00;3.55;;;;;;;25.83;36.30;102454.16;4937176;29;20032;-61
2023/05/25 09:18:04;;;;;;;17.48;3.20;;;;;;;26.33;35.48;102458.03;4938800;29;20058;-61
2023/05/25 09:20:32;;;;;;;10.05;3.40;;;;;;;26.14;35.57;102447.63;4953010;29;20043;-61
2023/05/25 09:22:58;;;;;;;9.13;2.97;;;;;;;26.02;35.57;102455.47;4938383;29;20032;-61
2023/05/25 09:25:29;;;;;;;10.02;2.92;;;;;;;25.96;35.90;102451.59;4938272;29;20035;-61
2023/05/25 09:27:57;;;;;;;6.88;3.15;;;;;;;25.91;35.89;102458.72;4936013;29;20563;-61
2023/05/25 09:30:23;;;;;;;9.38;3.15;;;;;;;25.90;35.70;102451.53;4937517;29;20063;-61
2023/05/25 09:32:49;;;;;;;6.97;2.55;;;;;;;26.11;35.39;102458.97;4938586;29;20586;-62
2023/05/25 09:35:14;;;;;;;11.48;2.83;;;;;;;26.64;34.69;102433.84;4937982;29;20504;-59
2023/05/25 09:37:40;;;;;;;9.57;2.85;;;;;;;26.35;34.87;102428.47;4937867;29;20036;-58
2023/05/25 09:40:07;;;;;;;6.70;2.70;;;;;;;27.00;33.99;102444.81;4937800;29;20028;-58
2023/05/25 09:42:33;;;;;;;5.10;2.70;;;;;;;27.21;33.74;102432.94;4952433;29;20106;-59
2023/05/25 09:44:59;;;;;;;6.25;2.13;;;;;;;27.74;33.38;102454.34;4952808;29;20051;-59
2023/05/25 09:47:26;;;;;;;6.38;3.08;;;;;;;28.15;33.43;102448.84;4937620;29;20062;-59
2023/05/25 09:49:52;;;;;;;5.22;2.78;;;;;;;27.91;33.70;102465.88;4937852;29;20043;-59
2023/05/25 09:52:17;;;;;;;8.15;3.10;;;;;;;28.07;33.10;102466.41;4936422;29;20177;-59
2023/05/25 09:54:48;;;;;;;4.72;2.45;;;;;;;28.09;32.59;102461.53;4937483;29;20519;-59
2023/05/25 09:57:15;;;;;;;7.25;3.25;;;;;;;27.96;33.66;102452.34;4937840;29;20500;-59
2023/05/25 09:59:40;;;;;;;4.88;2.40;;;;;;;27.86;32.91;102449.13;4937526;29;20499;-59
2023/05/25 10:02:06;;;;;;;6.80;2.45;;;;;;;28.47;32.00;102428.84;4952001;29;20054;-59
2023/05/25 10:04:31;;;;;;;5.50;2.60;;;;;;;29.18;32.00;102463.13;4937421;29;20481;-59
2023/05/25 10:06:58;;;;;;;3.63;2.65;;;;;;;29.61;31.35;102454.41;4937453;29;20115;-59
2023/05/25 10:09:24;;;;;;;7.43;2.20;;;;;;;29.91;31.51;102461.19;4936439;29;20048;-59
2023/05/25 10:11:50;;;;;;;4.18;1.90;;;;;;;29.51;32.21;102454.84;4938057;29;20030;-59
2023/05/25 10:14:24;;;;;;;4.25;1.77;;;;;;;29.77;31.31;102453.97;4937311;29;20159;-59
2023/05/25 10:16:52;;;;;;;4.75;2.10;;;;;;;30.28;30.47;102457.66;4920151;29;20042;-59
2023/05/25 10:19:20;;;;;;;8.73;2.15;;;;;;;30.38;30.32;102429.53;4935518;29;20027;-59
2023/05/25 10:21:51;;;;;;;5.68;1.95;;;;;;;30.76;30.06;102465.50;4937274;29;20499;-59
2023/05/25 10:24:29;;;;;;;8.85;2.40;;;;;;;30.88;30.14;102459.00;4935775;29;20063;-59
2023/05/25 10:26:57;;;;;;;4.63;1.85;;;;;;;31.02;30.00;102438.50;4936178;29;20028;-59
2023/05/25 10:29:23;;;;;;;6.07;1.52;;;;;;;31.36;29.47;102450.13;4951714;29;20044;-59
2023/05/25 10:31:50;;;;;;;5.35;1.55;;;;;;;31.16;30.08;102452.25;4935699;29;20042;-59
2023/05/25 10:34:16;;;;;;;8.23;2.45;;;;;;;30.50;30.18;102461.81;4937228;29;20090;-59
2023/05/25 10:36:41;;;;;;;6.28;1.77;;;;;;;30.17;30.59;102461.09;4937238;29;20491;-59
2023/05/25 10:39:08;;;;;;;7.80;2.40;;;;;;;30.75;29.95;102455.50;4935686;29;20118;-60
2023/05/25 10:41:33;;;;;;;4.75;1.80;;;;;;;30.56;29.95;102455.41;4936389;29;20591;-59
2023/05/25 10:43:59;;;;;;;6.20;1.90;;;;;;;30.31;30.52;102462.75;4936630;29;20043;-60
2023/05/25 10:46:25;;;;;;;5.18;1.83;;;;;;;29.89;30.18;102455.88;4951348;29;20064;-59
2023/05/25 10:48:59;;;;;;;5.03;1.67;;;;;;;29.69;30.90;102459.72;4936758;29;20066;-60
2023/05/25 10:51:36;;;;;;;4.32;1.88;;;;;;;30.04;30.21;102458.38;4936818;29;20023;-59
2023/05/25 10:54:02;;;;;;;4.72;1.77;;;;;;;29.50;30.28;102435.75;4937237;29;20027;-59
2023/05/25 10:56:27;;;;;;;7.32;2.05;;;;;;;30.32;29.68;102447.81;4936311;29;20051;-59
2023/05/25 10:58:52;;;;;;;4.85;1.73;;;;;;;30.63;29.26;102460.06;4935322;29;20059;-59
2023/05/25 11:01:18;;;;;;;3.88;1.42;;;;;;;30.15;29.54;102459.63;4934909;29;20040;-59
2023/05/25 11:03:43;;;;;;;5.30;1.52;;;;;;;31.06;28.90;102461.91;4936513;29;20499;-59
2023/05/25 11:06:22;;;;;;;3.75;1.55;;;;;;;31.15;29.21;102459.72;4936599;29;20027;-60
2023/05/25 11:09:06;;;;;;;7.07;1.80;;;;;;;30.79;29.22;102462.28;4936786;29;20054;-59
2023/05/25 11:11:46;;;;;;;5.82;1.70;;;;;;;30.51;29.47;102457.16;4937487;29;20032;-60
2023/05/25 11:14:22;;;;;;;2.03;1.50;;;;;;;30.31;29.42;102450.81;4936395;29;20628;-60
2023/05/25 11:17:17;;;;;;;2.17;1.40;;;;;;;30.60;29.35;102452.19;4936344;29;20039;-60
2023/05/25 11:19:47;;;;;;;5.78;1.40;;;;;;;31.32;29.18;102447.00;4935962;29;20530;-59
2023/05/25 11:22:21;;;;;;;3.83;1.63;;;;;;;31.25;29.02;102446.19;4918828;29;20042;-59
2023/05/25 11:24:48;;;;;;;9.13;2.05;;;;;;;30.68;29.26;102438.09;4936002;29;20039;-59